Time;durP1;ratioP1;P1;durP2;ratioP2;P2;SDS_P1;SDS_P2;PMS_P1;PMS_P2;Temp;Humidity;BMP_temperature;BMP_pressure;BME280_temperature;BME280_humidity;BME280_pressure;Samples;Min_cycle;Max_cycle;Signal;HPM_P1;HPM_P2
2024/01/08 00:01:59;;;;;;;;;;;;;;;0.63;68.60;102017.75;5069745;28;19931;-56
2024/01/08 00:04:30;;;;;;;;;;;;;;;0.63;68.79;102003.34;5066665;28;19924;-59
2024/01/08 00:06:57;;;;;;;;;;;;;;;0.75;69.14;102010.59;5065797;28;19932;-57
2024/01/08 00:09:24;;;;;;;;;;;;;;;1.09;68.41;102002.03;5066131;28;19924;-58
2024/01/08 00:11:52;;;;;;;;;;;;;;;0.73;68.11;102006.44;5083751;28;19928;-56
2024/01/08 00:14:19;;;;;;;;;;;;;;;0.93;68.19;102018.00;5067370;28;19924;-58
2024/01/08 00:16:46;;;;;;;;;;;;;;;0.40;68.08;102019.34;5067916;28;19929;-54
2024/01/08 00:19:13;;;;;;;;;;;;;;;0.30;69.02;102018.97;5067123;28;19932;-57
2024/01/08 00:21:41;;;;;;;;;;;;;;;0.38;68.59;102014.13;5065566;28;19924;-54
2024/01/08 00:24:08;;;;;;;;;;;;;;;0.57;68.46;102017.78;5068181;28;19944;-57
2024/01/08 00:26:37;;;;;;;;;;;;;;;0.32;69.75;102019.56;5066580;28;19924;-56
2024/01/08 00:29:04;;;;;;;;;;;;;;;0.27;68.73;102025.63;5068102;28;19942;-57
2024/01/08 00:31:32;;;;;;;;;;;;;;;0.24;69.93;102017.94;5057282;28;19932;-56
2024/01/08 00:34:02;;;;;;;;;;;;;;;0.26;69.18;102015.00;5065673;28;20039;-59
2024/01/08 00:36:31;;;;;;;;;;;;;;;0.36;69.51;102024.34;5058009;28;19925;-55
2024/01/08 00:39:01;;;;;;;;;;;;;;;0.51;69.06;102015.94;5067156;28;19931;-62
2024/01/08 00:41:30;;;;;;;;;;;;;;;0.56;68.07;102027.78;5066262;28;19925;-59
2024/01/08 00:43:57;;;;;;;;;;;;;;;0.42;68.68;102006.41;5055083;28;19924;-55
2024/01/08 00:46:25;;;;;;;;;;;;;;;0.46;68.26;102024.72;5061409;28;19924;-57
2024/01/08 00:48:52;;;;;;;;;;;;;;;0.12;67.78;102024.22;5066177;28;20455;-57
2024/01/08 00:51:19;;;;;;;;;;;;;;;-0.01;68.50;102028.63;5068085;28;20306;-58
2024/01/08 00:53:46;;;;;;;;;;;;;;;0.10;67.41;102034.44;5100230;28;19928;-56
2024/01/08 00:56:23;;;;;;;;;;;;;;;0.38;66.44;102032.25;5050551;28;19931;-57
2024/01/08 00:58:56;;;;;;;;;;;;;;;0.39;66.09;102020.38;5068584;28;19931;-57
2024/01/08 01:01:36;;;;;;;;;;;;;;;0.30;66.64;102008.13;5070310;28;19931;-57
2024/01/08 01:04:09;;;;;;;;;;;;;;;0.53;66.35;102005.72;5062413;28;20117;-56
2024/01/08 01:06:37;;;;;;;;;;;;;;;0.67;65.96;102012.72;5061700;28;19932;-55
2024/01/08 01:09:05;;;;;;;;;;;;;;;0.48;65.95;102011.78;5048046;28;19928;-55
2024/01/08 01:11:35;;;;;;;;;;;;;;;0.88;66.12;102017.81;5069380;28;19924;-59
2024/01/08 01:14:12;;;;;;;;;;;;;;;1.02;65.00;102020.25;5070407;28;19920;-57
2024/01/08 01:16:47;;;;;;;;;;;;;;;0.65;65.80;102018.38;5050152;28;19924;-56
2024/01/08 01:19:14;;;;;;;;;;;;;;;0.70;65.79;102032.09;5066748;28;19924;-54
2024/01/08 01:21:45;;;;;;;;;;;;;;;0.64;65.52;102016.72;5067814;28;19924;-59
2024/01/08 01:24:19;;;;;;;;;;;;;;;0.42;65.95;102023.47;5065369;28;19935;-55
2024/01/08 01:26:46;;;;;;;;;;;;;;;0.31;66.30;102023.31;5067627;28;20314;-56
2024/01/08 01:29:13;;;;;;;;;;;;;;;0.12;66.72;102013.41;5066850;28;19931;-56
2024/01/08 01:31:40;;;;;;;;;;;;;;;0.41;66.79;102015.56;5067777;28;19924;-53
2024/01/08 01:34:10;;;;;;;;;;;;;;;0.56;65.43;102018.84;5067181;28;19947;-56
2024/01/08 01:36:38;;;;;;;;;;;;;;;0.04;66.31;102025.28;5056853;28;19925;-55
2024/01/08 01:39:05;;;;;;;;;;;;;;;0.15;65.92;102031.91;5051815;28;20392;-55
2024/01/08 01:41:32;;;;;;;;;;;;;;;0.30;65.19;102038.75;5063519;28;19939;-56
2024/01/08 01:43:59;;;;;;;;;;;;;;;0.23;64.69;102037.94;5047135;28;19955;-57
2024/01/08 01:46:47;;;;;;;;;;;;;;;0.03;66.39;102039.03;5063420;28;19931;-54
2024/01/08 01:49:17;;;;;;;;;;;;;;;0.00;65.87;102041.13;5050631;28;19925;-56
2024/01/08 01:51:46;;;;;;;;;;;;;;;-0.01;65.85;102044.88;5064651;28;19924;-56
2024/01/08 01:54:14;;;;;;;;;;;;;;;-0.09;66.63;102036.97;5051684;28;20167;-55
2024/01/08 01:56:41;;;;;;;;;;;;;;;0.03;66.34;102040.69;5068934;28;19924;-55
2024/01/08 01:59:08;;;;;;;;;;;;;;;-0.07;66.55;102048.44;5063589;28;20038;-56
2024/01/08 02:01:35;;;;;;;;;;;;;;;-0.09;67.10;102044.28;5068932;28;19935;-54
2024/01/08 02:04:03;;;;;;;;;;;;;;;-0.08;67.13;102027.81;5050924;28;19943;-57
2024/01/08 02:06:30;;;;;;;;;;;;;;;0.19;66.91;102038.59;5069791;28;19925;-55
2024/01/08 02:08:57;;;;;;;;;;;;;;;0.12;66.89;102032.34;5054553;28;19929;-59
2024/01/08 02:11:24;;;;;;;;;;;;;;;0.03;66.58;102042.59;5068896;28;19939;-56
2024/01/08 02:13:51;;;;;;;;;;;;;;;0.14;66.49;102041.91;5054090;28;19925;-55
2024/01/08 02:16:19;;;;;;;;;;;;;;;0.36;65.41;102046.03;5068045;28;19925;-53
2024/01/08 02:18:46;;;;;;;;;;;;;;;0.32;65.27;102033.94;5065027;28;19935;-57
2024/01/08 02:21:13;;;;;;;;;;;;;;;0.35;64.84;102040.84;5057826;28;19925;-55
2024/01/08 02:23:40;;;;;;;;;;;;;;;0.22;64.82;102035.44;5081135;28;19928;-56
2024/01/08 02:26:07;;;;;;;;;;;;;;;0.14;65.43;102035.69;5070516;28;19935;-53
2024/01/08 02:28:34;;;;;;;;;;;;;;;0.29;65.37;102038.97;5068969;28;20559;-56
2024/01/08 02:31:01;;;;;;;;;;;;;;;0.24;66.15;102030.66;5052523;28;20579;-58
2024/01/08 02:33:28;;;;;;;;;;;;;;;0.35;66.16;102043.53;5061834;28;19939;-55
2024/01/08 02:35:56;;;;;;;;;;;;;;;0.11;66.35;102041.50;5068759;28;19924;-56
2024/01/08 02:38:24;;;;;;;;;;;;;;;0.17;66.52;102024.41;5069486;28;20319;-56
2024/01/08 02:40:51;;;;;;;;;;;;;;;0.28;66.46;102037.31;5067914;28;19932;-56
2024/01/08 02:43:18;;;;;;;;;;;;;;;0.45;66.12;102033.06;5069721;28;19935;-55
2024/01/08 02:45:48;;;;;;;;;;;;;;;0.59;65.54;102035.53;5094423;28;19931;-60
2024/01/08 02:48:15;;;;;;;;;;;;;;;0.25;64.79;102032.28;5059008;28;19924;-55
2024/01/08 02:50:42;;;;;;;;;;;;;;;0.60;64.73;102033.63;5062348;28;20368;-56
2024/01/08 02:53:09;;;;;;;;;;;;;;;0.49;63.67;102045.97;5058092;28;20290;-58
2024/01/08 02:55:36;;;;;;;;;;;;;;;0.40;63.45;102031.00;5063760;28;20750;-54
2024/01/08 02:58:04;;;;;;;;;;;;;;;0.51;63.53;102026.78;5080468;28;19924;-55
2024/01/08 03:00:31;;;;;;;;;;;;;;;0.41;64.48;102048.09;5049927;28;19925;-56
2024/01/08 03:02:58;;;;;;;;;;;;;;;0.23;64.61;102039.84;5065357;28;19935;-56
2024/01/08 03:05:25;;;;;;;;;;;;;;;0.33;64.73;102037.50;5068114;28;19924;-57
2024/01/08 03:07:52;;;;;;;;;;;;;;;0.15;65.07;102035.47;5068081;28;19924;-57
2024/01/08 03:10:19;;;;;;;;;;;;;;;0.29;65.50;102047.09;5067264;28;19924;-53
2024/01/08 03:12:46;;;;;;;;;;;;;;;0.12;65.59;102048.59;5068684;28;20387;-55
2024/01/08 03:15:13;;;;;;;;;;;;;;;0.00;66.74;102049.25;5069597;28;19928;-51
2024/01/08 03:17:41;;;;;;;;;;;;;;;0.21;65.86;102045.44;5067698;28;19924;-57
2024/01/08 03:20:09;;;;;;;;;;;;;;;0.02;66.21;102046.31;5101635;28;19924;-57
2024/01/08 03:22:36;;;;;;;;;;;;;;;0.06;65.99;102044.03;5069387;28;19925;-53
2024/01/08 03:25:04;;;;;;;;;;;;;;;0.26;64.90;102050.25;5069227;28;19931;-57
2024/01/08 03:27:32;;;;;;;;;;;;;;;0.14;65.63;102052.75;5069272;28;19924;-55
2024/01/08 03:29:59;;;;;;;;;;;;;;;0.12;64.64;102057.56;5065497;28;19928;-57
2024/01/08 03:32:28;;;;;;;;;;;;;;;0.29;65.26;102047.94;5069098;28;19967;-55
2024/01/08 03:34:56;;;;;;;;;;;;;;;0.13;65.32;102059.22;5069560;28;19931;-55
2024/01/08 03:37:23;;;;;;;;;;;;;;;-0.23;66.55;102067.81;5069359;28;19924;-54
2024/01/08 03:39:51;;;;;;;;;;;;;;;-0.26;66.98;102059.28;5069621;28;19967;-56
2024/01/08 03:42:19;;;;;;;;;;;;;;;-0.10;66.76;102051.56;5066987;28;19939;-53
2024/01/08 03:44:46;;;;;;;;;;;;;;;0.03;66.17;102049.88;5068965;28;19928;-54
2024/01/08 03:47:13;;;;;;;;;;;;;;;-0.01;66.35;102049.47;5064295;28;19935;-57
2024/01/08 03:49:40;;;;;;;;;;;;;;;0.23;65.56;102045.25;5069067;28;19924;-55
2024/01/08 03:52:07;;;;;;;;;;;;;;;-0.01;66.26;102042.19;5069298;28;19924;-55
2024/01/08 03:54:34;;;;;;;;;;;;;;;-0.19;66.59;102049.28;5067907;28;19928;-58
2024/01/08 03:57:01;;;;;;;;;;;;;;;0.11;67.23;102052.34;5069501;28;19924;-56
2024/01/08 03:59:28;;;;;;;;;;;;;;;0.16;66.53;102053.38;5068950;28;19928;-55
2024/01/08 04:01:55;;;;;;;;;;;;;;;0.11;67.15;102055.91;5069261;28;19932;-57
2024/01/08 04:04:22;;;;;;;;;;;;;;;0.35;66.69;102055.19;5084349;28;19924;-57
2024/01/08 04:06:49;;;;;;;;;;;;;;;0.09;67.81;102052.56;5067554;28;19932;-56
2024/01/08 04:09:17;;;;;;;;;;;;;;;0.19;67.19;102049.41;5083222;28;19924;-54
2024/01/08 04:11:44;;;;;;;;;;;;;;;0.14;66.74;102066.28;5069066;28;20377;-54
2024/01/08 04:14:14;;;;;;;;;;;;;;;-0.09;67.39;102084.91;5068836;28;19925;-55
2024/01/08 04:16:41;;;;;;;;;;;;;;;-0.17;68.33;102077.81;5067741;28;19928;-55
2024/01/08 04:19:08;;;;;;;;;;;;;;;-0.27;69.20;102073.88;5067976;28;19928;-53
2024/01/08 04:21:35;;;;;;;;;;;;;;;-0.39;67.91;102067.41;5067966;28;19924;-52
2024/01/08 04:24:03;;;;;;;;;;;;;;;-0.43;65.71;102069.72;5088679;28;19925;-53
2024/01/08 04:26:30;;;;;;;;;;;;;;;-0.32;65.00;102070.97;5064295;28;19924;-53
2024/01/08 04:28:57;;;;;;;;;;;;;;;-0.25;64.20;102079.91;5067850;28;19924;-56
2024/01/08 04:31:24;;;;;;;;;;;;;;;-0.10;64.65;102067.81;5067541;28;19924;-53
2024/01/08 04:33:55;;;;;;;;;;;;;;;0.12;64.28;102070.28;5066862;28;19931;-58
2024/01/08 04:36:22;;;;;;;;;;;;;;;0.09;64.69;102082.34;5069013;28;19924;-55
2024/01/08 04:38:49;;;;;;;;;;;;;;;0.09;64.85;102084.25;5068641;28;19928;-54
2024/01/08 04:41:17;;;;;;;;;;;;;;;-0.12;65.47;102088.00;5066780;28;19924;-54
2024/01/08 04:43:44;;;;;;;;;;;;;;;-0.02;66.21;102088.44;5066646;28;19924;-55
2024/01/08 04:46:11;;;;;;;;;;;;;;;-0.20;67.30;102067.41;5086644;28;19925;-56
2024/01/08 04:48:39;;;;;;;;;;;;;;;-0.12;66.96;102080.72;5052286;28;19924;-58
2024/01/08 04:51:06;;;;;;;;;;;;;;;-0.22;68.09;102082.19;5065327;28;19931;-55
2024/01/08 04:53:35;;;;;;;;;;;;;;;-0.16;66.92;102092.19;5057744;28;19925;-57
2024/01/08 04:56:02;;;;;;;;;;;;;;;-0.26;66.28;102091.75;5066039;28;19924;-53
2024/01/08 04:58:29;;;;;;;;;;;;;;;-0.22;66.16;102082.19;5068150;28;19929;-55
2024/01/08 05:00:56;;;;;;;;;;;;;;;-0.28;66.19;102070.31;5063246;28;19925;-57
2024/01/08 05:03:24;;;;;;;;;;;;;;;-0.40;67.67;102074.69;5056382;28;19924;-56
2024/01/08 05:05:51;;;;;;;;;;;;;;;-0.17;67.82;102077.81;5061259;28;19931;-54
2024/01/08 05:08:18;;;;;;;;;;;;;;;-0.21;67.94;102068.44;5068269;28;19924;-56
2024/01/08 05:10:45;;;;;;;;;;;;;;;-0.35;67.35;102072.19;5063960;28;19935;-52
2024/01/08 05:13:12;;;;;;;;;;;;;;;-0.22;66.66;102071.38;5067063;28;20496;-52
2024/01/08 05:15:40;;;;;;;;;;;;;;;-0.32;66.58;102079.94;5050918;28;19932;-58
2024/01/08 05:18:08;;;;;;;;;;;;;;;-0.15;65.79;102075.75;5062512;28;19932;-54
2024/01/08 05:20:36;;;;;;;;;;;;;;;-0.13;64.50;102084.50;5058046;28;19924;-56
2024/01/08 05:23:03;;;;;;;;;;;;;;;-0.10;63.50;102078.66;5067575;28;19924;-53
2024/01/08 05:25:33;;;;;;;;;;;;;;;0.02;63.19;102078.00;5053430;28;19931;-56
2024/01/08 05:28:00;;;;;;;;;;;;;;;0.00;62.66;102081.75;5050602;28;19970;-55
2024/01/08 05:30:30;;;;;;;;;;;;;;;-0.28;63.40;102073.03;5077724;28;19925;-55
2024/01/08 05:32:58;;;;;;;;;;;;;;;-0.03;63.30;102084.03;5065513;28;19924;-55
2024/01/08 05:35:25;;;;;;;;;;;;;;;0.31;63.08;102080.22;5082279;28;19932;-58
2024/01/08 05:37:52;;;;;;;;;;;;;;;0.26;62.14;102080.88;5065321;28;19924;-56
2024/01/08 05:40:19;;;;;;;;;;;;;;;0.17;63.56;102098.41;5067693;28;19931;-56
2024/01/08 05:42:46;;;;;;;;;;;;;;;0.16;64.63;102079.66;5066745;28;19928;-55
2024/01/08 05:45:13;;;;;;;;;;;;;;;-0.01;64.89;102084.66;5055855;28;19955;-58
2024/01/08 05:47:42;;;;;;;;;;;;;;;-0.32;66.19;102081.78;5048587;28;19925;-56
2024/01/08 05:50:09;;;;;;;;;;;;;;;-0.02;65.88;102091.16;5063810;28;20381;-52
2024/01/08 05:52:36;;;;;;;;;;;;;;;-0.09;65.42;102087.63;5068022;28;19924;-58
2024/01/08 05:55:04;;;;;;;;;;;;;;;-0.20;66.28;102090.94;5059530;28;19924;-55
2024/01/08 05:57:31;;;;;;;;;;;;;;;-0.41;66.18;102086.59;5065558;28;19924;-56
2024/01/08 05:59:58;;;;;;;;;;;;;;;-0.41;66.06;102092.00;5064909;28;20699;-57
2024/01/08 06:02:25;;;;;;;;;;;;;;;-0.33;64.74;102094.47;5046264;28;19929;-57
2024/01/08 06:04:52;;;;;;;;;;;;;;;-0.38;65.17;102094.28;5054027;28;19940;-55
2024/01/08 06:07:19;;;;;;;;;;;;;;;-0.20;64.12;102093.66;5062554;28;19930;-54
2024/01/08 06:09:47;;;;;;;;;;;;;;;0.03;63.61;102111.13;5067370;28;19928;-56
2024/01/08 06:12:14;;;;;;;;;;;;;;;-0.17;62.91;102112.19;5046485;28;19924;-59
2024/01/08 06:14:41;;;;;;;;;;;;;;;-0.20;62.57;102108.03;5061445;28;19924;-58
2024/01/08 06:17:09;;;;;;;;;;;;;;;-0.21;61.44;102127.19;5064580;28;19925;-55
2024/01/08 06:19:36;;;;;;;;;;;;;;;-0.29;62.46;102095.75;5064250;28;19924;-55
2024/01/08 06:22:04;;;;;;;;;;;;;;;-0.34;62.27;102100.09;5066547;28;19932;-57
2024/01/08 06:24:32;;;;;;;;;;;;;;;-0.26;61.76;102100.72;5066020;28;20310;-52
2024/01/08 06:27:18;;;;;;;;;;;;;;;-0.17;62.13;102104.91;5069072;28;19927;-58
2024/01/08 06:30:47;;;;;;;;;;;;;;;0.09;61.28;102109.44;5060648;28;20659;-55
2024/01/08 06:33:14;;;;;;;;;;;;;;;-0.19;62.08;102106.13;5069774;28;20450;-59
2024/01/08 06:35:42;;;;;;;;;;;;;;;0.02;61.56;102100.50;5070551;28;19932;-56
2024/01/08 06:38:09;;;;;;;;;;;;;;;0.09;61.57;102100.50;5065208;28;19924;-57
2024/01/08 06:40:36;;;;;;;;;;;;;;;0.35;61.27;102105.88;5069853;28;20353;-55
2024/01/08 06:43:03;;;;;;;;;;;;;;;0.08;61.74;102115.91;5068859;28;20366;-56
2024/01/08 06:45:30;;;;;;;;;;;;;;;-0.17;63.36;102106.75;5098752;28;20619;-57
2024/01/08 06:47:58;;;;;;;;;;;;;;;-0.46;64.96;102110.72;5069967;28;19959;-57
2024/01/08 06:50:25;;;;;;;;;;;;;;;-0.46;64.76;102121.56;5069807;28;19931;-55
2024/01/08 06:52:53;;;;;;;;;;;;;;;-0.21;64.72;102114.47;5070660;28;19995;-55
2024/01/08 06:55:20;;;;;;;;;;;;;;;-0.24;64.39;102105.94;5068791;28;19928;-54
2024/01/08 06:57:49;;;;;;;;;;;;;;;-0.23;64.40;102107.63;5070708;28;19936;-54
2024/01/08 07:00:18;;;;;;;;;;;;;;;-0.29;63.65;102117.41;5070070;28;19924;-57
2024/01/08 07:02:45;;;;;;;;;;;;;;;-0.42;64.63;102109.25;5070680;28;19924;-57
2024/01/08 07:05:12;;;;;;;;;;;;;;;-0.46;64.78;102115.31;5068844;28;19924;-55
2024/01/08 07:07:40;;;;;;;;;;;;;;;-0.46;64.76;102123.44;5069735;28;19935;-56
2024/01/08 07:10:08;;;;;;;;;;;;;;;-0.41;64.03;102113.66;5068928;28;19924;-56
2024/01/08 07:12:35;;;;;;;;;;;;;;;-0.48;64.38;102110.09;5085067;28;20387;-57
2024/01/08 07:15:03;;;;;;;;;;;;;;;-0.42;64.69;102103.84;5084359;28;20000;-57
2024/01/08 07:17:30;;;;;;;;;;;;;;;-0.47;64.80;102111.75;5063113;28;19930;-59
2024/01/08 07:19:58;;;;;;;;;;;;;;;-0.39;65.03;102102.59;5080716;28;19924;-57
2024/01/08 07:22:25;;;;;;;;;;;;;;;-0.60;65.41;102114.47;5069408;28;19931;-55
2024/01/08 07:24:52;;;;;;;;;;;;;;;-0.45;66.11;102117.81;5069643;28;19924;-53
2024/01/08 07:27:19;;;;;;;;;;;;;;;-0.43;66.25;102115.72;5095956;28;19924;-57
2024/01/08 07:29:46;;;;;;;;;;;;;;;-0.31;65.17;102107.81;5084011;28;19928;-56
2024/01/08 07:32:14;;;;;;;;;;;;;;;-0.42;64.81;102103.84;5067629;28;19924;-56
2024/01/08 07:34:41;;;;;;;;;;;;;;;-0.32;64.84;102107.00;5067157;28;19931;-57
2024/01/08 07:37:55;;;;;;;;;;;;;;;-0.62;64.70;102111.13;5074455;28;19931;-54
2024/01/08 07:41:08;;;;;;;;;;;;;;;-0.58;65.75;102109.69;5060135;28;19924;-56
2024/01/08 07:43:37;;;;;;;;;;;;;;;-0.23;65.10;102119.25;5074465;28;19924;-59
2024/01/08 07:46:05;;;;;;;;;;;;;;;-0.24;64.76;102122.19;5069245;28;19924;-64
2024/01/08 07:48:43;;;;;;;;;;;;;;;-0.31;64.75;102122.19;5050198;28;19932;-56
2024/01/08 07:51:11;;;;;;;;;;;;;;;-0.63;65.98;102112.19;5084780;28;19924;-63
2024/01/08 07:53:38;;;;;;;;;;;;;;;-0.46;66.45;102116.16;5064002;28;19930;-60
2024/01/08 07:56:05;;;;;;;;;;;;;;;-0.54;65.80;102108.22;5066613;28;19924;-59
2024/01/08 07:58:32;;;;;;;;;;;;;;;-0.69;66.57;102117.56;5062226;28;19931;-56
2024/01/08 08:01:08;;;;;;;;;;;;;;;-0.48;66.13;102123.63;5068336;28;19935;-63
2024/01/08 08:03:36;;;;;;;;;;;;;;;-0.75;66.81;102116.50;5068439;28;19932;-62
2024/01/08 08:06:03;;;;;;;;;;;;;;;-0.76;67.30;102128.38;5067507;28;19924;-57
2024/01/08 08:08:31;;;;;;;;;;;;;;;-0.73;67.74;102122.53;5095165;28;20322;-53
2024/01/08 08:10:59;;;;;;;;;;;;;;;-0.75;68.40;102121.91;5060566;28;19924;-58
2024/01/08 08:13:27;;;;;;;;;;;;;;;-0.56;67.89;102137.34;5067432;28;19930;-58
2024/01/08 08:15:54;;;;;;;;;;;;;;;-0.65;67.43;102133.19;5068595;28;19924;-57
2024/01/08 08:18:22;;;;;;;;;;;;;;;-0.50;67.64;102114.88;5068018;28;19924;-60
2024/01/08 08:20:50;;;;;;;;;;;;;;;-0.51;67.06;102137.59;5066630;28;19924;-57
2024/01/08 08:23:18;;;;;;;;;;;;;;;-0.67;66.63;102129.00;5068295;28;20019;-54
2024/01/08 08:25:45;;;;;;;;;;;;;;;-0.69;67.74;102125.66;5068979;28;19924;-58
2024/01/08 08:28:12;;;;;;;;;;;;;;;-0.56;67.55;102134.63;5067701;28;20386;-58
2024/01/08 08:30:40;;;;;;;;;;;;;;;-0.42;67.67;102140.94;5063106;28;20693;-55
2024/01/08 08:33:07;;;;;;;;;;;;;;;-0.46;68.82;102140.50;5068009;28;19967;-57
2024/01/08 08:35:36;;;;;;;;;;;;;;;-0.58;69.85;102142.16;5068121;28;19924;-57
2024/01/08 08:38:04;;;;;;;;;;;;;;;-0.46;69.68;102143.22;5069387;28;19939;-57
2024/01/08 08:40:32;;;;;;;;;;;;;;;-0.38;69.35;102137.59;5065673;28;20729;-56
2024/01/08 08:42:59;;;;;;;;;;;;;;;-0.52;67.99;102137.75;5066885;28;20569;-57
2024/01/08 08:45:26;;;;;;;;;;;;;;;-0.49;67.73;102143.59;5067828;28;19924;-60
2024/01/08 08:47:53;;;;;;;;;;;;;;;-0.23;66.75;102137.41;5067742;28;20366;-57
2024/01/08 08:50:20;;;;;;;;;;;;;;;-0.20;66.08;102139.69;5067127;28;20505;-57
2024/01/08 08:52:47;;;;;;;;;;;;;;;-0.21;66.50;102152.38;5065519;28;20383;-58
2024/01/08 08:55:15;;;;;;;;;;;;;;;-0.29;66.80;102162.56;5064792;28;19925;-57
2024/01/08 08:57:42;;;;;;;;;;;;;;;-0.50;69.06;102158.19;5063615;28;20607;-57
2024/01/08 09:00:09;;;;;;;;;;;;;;;-0.61;69.04;102166.09;5067894;28;19921;-57
2024/01/08 09:02:38;;;;;;;;;;;;;;;-0.47;69.28;102155.06;5078630;28;19935;-55
2024/01/08 09:05:07;;;;;;;;;;;;;;;-0.42;69.27;102163.38;5075633;28;19926;-58
2024/01/08 09:07:36;;;;;;;;;;;;;;;-0.62;71.95;102162.53;5071113;28;19924;-55
2024/01/08 09:10:03;;;;;;;;;;;;;;;-0.24;72.28;102160.06;5069905;28;19931;-56
2024/01/08 09:12:30;;;;;;;;;;;;;;;-0.20;72.16;102164.03;5070590;28;19948;-57
2024/01/08 09:14:57;;;;;;;;;;;;;;;-0.11;71.82;102160.94;5066550;28;19921;-56
2024/01/08 09:17:25;;;;;;;;;;;;;;;0.18;71.48;102156.94;5056615;28;20315;-57
2024/01/08 09:19:52;;;;;;;;;;;;;;;-0.15;70.42;102164.25;5068063;28;19925;-54
2024/01/08 09:22:24;;;;;;;;;;;;;;;-0.24;71.60;102160.91;5073511;28;19955;-55
2024/01/08 09:24:51;;;;;;;;;;;;;;;0.08;70.76;102155.69;5062369;28;19931;-56
2024/01/08 09:27:18;;;;;;;;;;;;;;;-0.18;70.61;102170.94;5074958;28;20656;-55
2024/01/08 09:29:48;;;;;;;;;;;;;;;-0.47;72.12;102176.69;5061869;28;19924;-54
2024/01/08 09:32:15;;;;;;;;;;;;;;;-0.77;74.63;102170.00;5050494;28;19924;-54
2024/01/08 09:34:42;;;;;;;;;;;;;;;-0.48;74.16;102166.09;5069820;28;19936;-57
2024/01/08 09:37:10;;;;;;;;;;;;;;;-0.28;73.18;102161.56;5069779;28;20429;-55
2024/01/08 09:39:37;;;;;;;;;;;;;;;-0.05;72.60;102172.78;5078054;28;19924;-58
2024/01/08 09:42:04;;;;;;;;;;;;;;;-0.46;72.72;102183.81;5069297;28;20019;-56
2024/01/08 09:44:31;;;;;;;;;;;;;;;-0.79;75.26;102182.88;5067181;28;19920;-57
2024/01/08 09:46:59;;;;;;;;;;;;;;;-0.72;74.50;102183.75;5070214;28;19920;-58
2024/01/08 09:49:26;;;;;;;;;;;;;;;-0.69;74.15;102188.75;5083385;28;19957;-59
2024/01/08 09:51:54;;;;;;;;;;;;;;;-0.62;75.22;102186.88;5070014;28;19924;-57
2024/01/08 09:54:21;;;;;;;;;;;;;;;-0.75;77.25;102184.13;5065535;28;19931;-59
2024/01/08 09:56:50;;;;;;;;;;;;;;;-0.54;77.53;102194.00;5083315;28;19925;-61
2024/01/08 09:59:17;;;;;;;;;;;;;;;-0.45;77.32;102192.72;5067790;28;19947;-57
2024/01/08 10:01:44;;;;;;;;;;;;;;;-0.39;76.29;102190.06;5069632;28;20391;-57
2024/01/08 10:04:11;;;;;;;;;;;;;;;-0.58;76.58;102198.13;5064429;28;19932;-57
2024/01/08 10:06:39;;;;;;;;;;;;;;;-0.74;77.08;102183.09;5066659;28;19924;-57
2024/01/08 10:09:06;;;;;;;;;;;;;;;-0.65;77.44;102195.41;5075412;28;20548;-58
2024/01/08 10:11:33;;;;;;;;;;;;;;;-0.66;77.55;102201.84;5075181;28;20619;-57
2024/01/08 10:14:00;;;;;;;;;;;;;;;-0.48;77.61;102196.69;5053801;28;19920;-55
2024/01/08 10:16:27;;;;;;;;;;;;;;;-0.39;77.94;102189.22;5068069;28;19920;-54
2024/01/08 10:19:15;;;;;;;;;;;;;;;-0.50;77.46;102189.81;5069976;28;19925;-58
2024/01/08 10:21:43;;;;;;;;;;;;;;;-0.40;77.63;102193.78;5061002;28;19951;-56
2024/01/08 10:24:11;;;;;;;;;;;;;;;-0.25;78.18;102180.06;5058241;28;19924;-56
2024/01/08 10:26:38;;;;;;;;;;;;;;;-0.12;78.27;102178.22;5065351;28;19920;-59
2024/01/08 10:29:10;;;;;;;;;;;;;;;-0.43;79.43;102164.44;5065301;28;19921;-59
2024/01/08 10:31:37;;;;;;;;;;;;;;;-0.24;79.78;102177.16;5066222;28;19931;-58
2024/01/08 10:34:05;;;;;;;;;;;;;;;-0.23;78.84;102178.81;5064670;28;20033;-56
2024/01/08 10:36:32;;;;;;;;;;;;;;;-0.64;80.22;102172.72;5064552;28;19924;-57
2024/01/08 10:39:00;;;;;;;;;;;;;;;-0.44;80.21;102186.31;5067042;28;19924;-56
2024/01/08 10:41:28;;;;;;;;;;;;;;;-0.68;81.17;102178.75;5072436;28;19920;-59
2024/01/08 10:43:57;;;;;;;;;;;;;;;-0.60;81.06;102179.41;5067903;28;19920;-59
2024/01/08 10:46:26;;;;;;;;;;;;;;;-0.97;82.20;102166.38;5069803;28;19924;-56
2024/01/08 10:48:56;;;;;;;;;;;;;;;-0.87;83.25;102172.22;5069811;28;19924;-56
2024/01/08 10:51:24;;;;;;;;;;;;;;;-0.88;84.88;102167.88;5066546;28;19928;-55
2024/01/08 10:53:53;;;;;;;;;;;;;;;-0.55;83.79;102167.94;5092293;28;19931;-56
2024/01/08 10:56:23;;;;;;;;;;;;;;;-0.45;81.23;102161.09;5070264;28;19925;-55
2024/01/08 10:59:02;;;;;;;;;;;;;;;-0.37;80.34;102163.63;5052113;28;19924;-57
2024/01/08 11:01:29;;;;;;;;;;;;;;;-0.72;80.16;102155.84;5068784;28;19924;-63
2024/01/08 11:03:58;;;;;;;;;;;;;;;-0.78;80.91;102160.19;5071190;28;19924;-62
2024/01/08 11:06:28;;;;;;;;;;;;;;;-0.63;79.86;102155.47;5061004;28;21334;-64
2024/01/08 11:08:56;;;;;;;;;;;;;;;-0.47;79.23;102152.34;5069857;28;19925;-63
2024/01/08 11:11:23;;;;;;;;;;;;;;;-0.54;76.86;102150.69;5083215;28;19924;-64
2024/01/08 11:13:50;;;;;;;;;;;;;;;-0.28;76.79;102156.13;5079277;28;19940;-63
2024/01/08 11:16:20;;;;;;;;;;;;;;;-0.52;76.64;102148.59;5080186;28;20373;-62
2024/01/08 11:18:47;;;;;;;;;;;;;;;-0.39;76.20;102149.47;5078739;28;19920;-62
2024/01/08 11:21:15;;;;;;;;;;;;;;;0.10;77.35;102149.06;5088037;28;19924;-62
2024/01/08 11:23:43;;;;;;;;;;;;;;;-0.11;77.41;102136.56;5075650;28;19924;-62
2024/01/08 11:26:14;;;;;;;;;;;;;;;0.06;77.74;102128.00;5068676;28;19928;-63
2024/01/08 11:28:41;;;;;;;;;;;;;;;0.26;76.44;102132.38;5074162;28;19931;-62
2024/01/08 11:31:45;;;;;;;;;;;;;;;-0.16;76.07;102136.34;5086273;28;19928;-61
2024/01/08 11:34:12;;;;;;;;;;;;;;;-0.30;77.24;102129.25;5065446;28;19934;-63
2024/01/08 11:36:48;;;;;;;;;;;;;;;-0.46;77.34;102128.84;5064250;28;20327;-63
2024/01/08 11:39:17;;;;;;;;;;;;;;;-0.11;77.68;102116.78;5062762;28;20370;-62
2024/01/08 11:41:45;;;;;;;;;;;;;;;0.05;77.06;102123.63;5061300;28;19932;-65
2024/01/08 11:44:17;;;;;;;;;;;;;;;-0.09;76.91;102118.22;5064812;28;19928;-62
2024/01/08 11:46:45;;;;;;;;;;;;;;;-0.10;75.43;102119.25;5066735;28;19924;-64
2024/01/08 11:49:12;;;;;;;;;;;;;;;-0.08;76.42;102133.44;5083324;28;19939;-58
2024/01/08 11:51:43;;;;;;;;;;;;;;;-0.56;78.18;102131.94;5063564;28;20410;-59
2024/01/08 11:54:12;;;;;;;;;;;;;;;-0.62;79.55;102129.22;5058179;28;19932;-63
2024/01/08 11:56:41;;;;;;;;;;;;;;;-0.53;81.26;102128.84;5051670;28;19956;-59
2024/01/08 11:59:09;;;;;;;;;;;;;;;-0.84;82.88;102135.84;5084629;28;19931;-63
2024/01/08 12:01:36;;;;;;;;;;;;;;;-0.87;83.97;102120.03;5065179;28;19930;-61
2024/01/08 12:04:04;;;;;;;;;;;;;;;-0.49;83.13;102118.44;5061570;28;19924;-62
2024/01/08 12:06:31;;;;;;;;;;;;;;;-0.77;82.91;102115.91;5060180;28;19931;-63
2024/01/08 12:08:58;;;;;;;;;;;;;;;-0.90;81.46;102123.97;5056449;28;19931;-62
2024/01/08 12:11:26;;;;;;;;;;;;;;;-0.76;81.11;102122.13;5069739;28;20441;-56
2024/01/08 12:13:54;;;;;;;;;;;;;;;-0.49;81.00;102113.03;5067491;28;19943;-55
2024/01/08 12:16:21;;;;;;;;;;;;;;;-0.72;80.57;102105.28;5064471;28;20294;-57
2024/01/08 12:18:48;;;;;;;;;;;;;;;-0.65;80.80;102111.53;5073639;28;19936;-55
2024/01/08 12:21:15;;;;;;;;;;;;;;;-0.24;80.57;102117.59;5067676;28;19928;-56
2024/01/08 12:23:43;;;;;;;;;;;;;;;-0.17;78.82;102117.59;5069254;28;19947;-54
2024/01/08 12:26:11;;;;;;;;;;;;;;;-0.29;79.42;102116.56;5089800;28;19921;-56
2024/01/08 12:28:38;;;;;;;;;;;;;;;-0.26;79.26;102110.72;5064868;28;20398;-58
2024/01/08 12:31:05;;;;;;;;;;;;;;;-0.19;79.36;102106.13;5072345;28;19924;-56
2024/01/08 12:33:33;;;;;;;;;;;;;;;-0.51;77.41;102102.41;5067712;28;19923;-57
2024/01/08 12:36:00;;;;;;;;;;;;;;;-0.52;76.04;102103.44;5061431;28;19931;-55
2024/01/08 12:38:27;;;;;;;;;;;;;;;-0.12;76.00;102096.13;5061162;28;20331;-58
2024/01/08 12:40:55;;;;;;;;;;;;;;;-0.34;73.23;102097.41;5059566;28;19943;-54
2024/01/08 12:43:22;;;;;;;;;;;;;;;-0.45;74.20;102098.00;5065265;28;19947;-57
2024/01/08 12:45:52;;;;;;;;;;;;;;;-0.08;73.35;102095.53;5059669;28;19925;-57
2024/01/08 12:48:19;;;;;;;;;;;;;;;0.09;72.33;102097.78;5065347;28;19931;-53